NCAR-RAP Real-Time Weather Data

Output produced by METARs form (19 June 2019  11:36 UTC)
found at http://weather.rap.ucar.edu/surface/
 
KBDL 191051Z 00000KT 8SM FEW003 OVC007 20/17 A2987 RMK AO2 SLP115 BINOVC T02000172
KBDL 190951Z 00000KT 7SM BKN007 BKN029 19/17 A2987 RMK AO2 SLP116 T01890172
KBDL 190947Z 00000KT 7SM BKN007 BKN029 19/17 A2988 RMK AO2
KBDL 190851Z 00000KT 9SM FEW007 OVC027 19/17 A2987 RMK AO2 SLP112 T01890172 56006
KBDL 190835Z 31003KT 10SM FEW007 OVC027 19/17 A2987 RMK AO2 T01890172
KBDL 190751Z 00000KT 10SM FEW012 OVC027 19/17 A2987 RMK AO2 SLP112 T01890172
KBDL 190711Z 00000KT 10SM SCT011 OVC028 19/17 A2987 RMK AO2 T01890172
KBDL 190651Z 00000KT 10SM BKN010 OVC025 19/17 A2987 RMK AO2 SLP115 T01890172
KBDL 190630Z 00000KT 10SM OVC010 19/17 A2988 RMK AO2 T01890172
KBDL 190551Z 00000KT 10SM OVC009 19/17 A2989 RMK AO2 SLP119 T01890172 10189 20183 55001
KBDL 190451Z 00000KT 10SM BKN009 OVC024 19/17 A2988 RMK AO2 SLP118 T01890167 402110183
KBDL 190351Z 00000KT 9SM BKN009 BKN017 OVC028 19/17 A2989 RMK AO2 SLP120 T01890167
KBDL 190342Z 00000KT 10SM BKN008 BKN023 OVC028 18/17 A2989 RMK AO2 T01830167
KBDL 190328Z 00000KT 10SM FEW008 BKN025 OVC100 18/17 A2989 RMK AO2 T01830167
KBDL 190315Z 00000KT 10SM BKN023 OVC100 18/17 A2989 RMK AO2 T01830167
KBDL 190251Z 00000KT 10SM SCT017 OVC100 19/17 A2989 RMK AO2 SLP120 T01890167 50001
KBDL 190244Z 00000KT 10SM BKN017 OVC100 18/17 A2989 RMK AO2 T01830167
KBDL 190151Z 32003KT 10SM FEW036 OVC100 18/17 A2990 RMK AO2 SLP123 T01830167
KBDL 190137Z 32003KT 10SM SCT023 OVC100 18/17 A2989 RMK AO2 T01830167
KBDL 190051Z 00000KT 10SM FEW016 BKN022 OVC030 19/17 A2989 RMK AO2 SLP119 BINOVC T01890167
KBDL 182351Z 36006KT 10SM FEW010 OVC017 18/17 A2989 RMK AO2 DZB09E35 SLP120 P0000 60006 T01830167 10211 20183 56003
KBDL 182251Z 35007KT 10SM FEW008 FEW013 OVC018 18/17 A2989 RMK AO2 RAE04 SLP120 P0000 T01830167
KBDL 182219Z 35008KT 10SM SCT008 SCT013 OVC019 19/17 A2989 RMK AO2 RAE04 P0000 T01890172
KBDL 182151Z 36006KT 8SM -RA BKN009 OVC015 19/17 A2989 RMK AO2 SLP123 PCPN VRY LGT P0001 T01940172
KBDL 182051Z 34004KT 4SM -RA BR OVC007 21/19 A2990 RMK AO2 RAE13B34 SLP123 P0003 60005 T02060189 56013
KBDL 181951Z 00000KT 3SM -RA BR BKN007 BKN015 OVC110 21/18 A2990 RMK AO2 RAE21B37 SLP124 P0001 T02060183
KBDL 181925Z 33003KT 10SM BKN007 OVC015 21/18 A2991 RMK AO2 RAE21 P0000 T02060178
KBDL 181851Z 05003KT 10SM -RA FEW007 OVC015 21/18 A2991 RMK AO2 RAE20B44 SLP127 P0001 T02060178
KBDL 181830Z 00000KT 10SM FEW007 BKN015 OVC021 20/17 A2992 RMK AO2 RAE20 P0001 T02000172
KBDL 181751Z 01004KT 9SM -RA BKN019 OVC035 20/17 A2994 RMK AO2 SLP135 P0003 60005 T02000172 10206 20194 58008
KBDL 181651Z 02006KT 7SM -RA BKN016 OVC026 19/17 A2996 RMK AO2 SLP142 P0002 T01940167
KBDL 181551Z 36003KT 10SM -RA BKN018 OVC030 21/16 A2996 RMK AO2 SLP143 P0000 T02060161
KBDL 181451Z 02006KT 10SM -RA BKN015 OVC040 21/16 A2996 RMK AO2 SLP144 PCPN VRY LGT P0000 60000 T02060161 58004
KBDL 181401Z 36005KT 10SM -RA BKN015 OVC070 20/16 A2997 RMK AO2 PCPN VRY LGT P0000 T02000161
KBDL 181351Z 35005KT 10SM -RA BKN014 OVC070 20/16 A2997 RMK AO2 RAB24 SLP148 PCPN VRY LGT P0000 T02000161